createdAt,value
2022-11-05T00:00:10.033Z,8.66
2022-11-05T00:01:10.009Z,8.63
2022-11-05T00:02:10.013Z,8.60
2022-11-05T00:03:10.268Z,8.58
2022-11-05T00:04:10.095Z,8.56
2022-11-05T00:05:09.986Z,8.53
2022-11-05T00:06:09.984Z,8.51
2022-11-05T00:07:09.942Z,8.53
2022-11-05T00:08:09.959Z,8.56
2022-11-05T00:09:09.922Z,8.53
2022-11-05T00:10:09.931Z,8.51
2022-11-05T00:11:13.866Z,8.51
2022-11-05T00:12:09.913Z,8.49
2022-11-05T00:13:10.242Z,8.51
2022-11-05T00:14:09.884Z,8.52
2022-11-05T00:15:09.874Z,8.49
2022-11-05T00:16:09.859Z,8.49
2022-11-05T00:17:09.867Z,8.51
2022-11-05T00:18:09.848Z,8.49
2022-11-05T00:19:09.815Z,8.48
2022-11-05T00:20:09.819Z,8.41
2022-11-05T00:21:09.813Z,8.38
2022-11-05T00:22:09.796Z,8.38
2022-11-05T00:23:10.141Z,8.33
2022-11-05T00:24:09.797Z,8.33
2022-11-05T00:25:09.752Z,8.36
2022-11-05T00:26:09.755Z,8.36
2022-11-05T00:27:09.739Z,8.34
2022-11-05T00:28:09.739Z,8.30
2022-11-05T00:29:09.753Z,8.30
2022-11-05T00:30:09.717Z,8.28
2022-11-05T00:31:09.705Z,8.27
2022-11-05T00:32:09.698Z,8.24
2022-11-05T00:33:09.953Z,8.18
2022-11-05T00:34:09.669Z,8.13
2022-11-05T00:35:09.691Z,8.10
2022-11-05T00:36:09.657Z,8.08
2022-11-05T00:37:09.628Z,8.09
2022-11-05T00:38:09.642Z,8.06
2022-11-05T00:39:09.614Z,7.97
2022-11-05T00:40:09.614Z,8.01
2022-11-05T00:41:09.621Z,8.00
2022-11-05T00:42:09.598Z,7.95
2022-11-05T00:43:09.921Z,7.88
2022-11-05T00:44:09.569Z,7.87
2022-11-05T00:45:09.555Z,7.87
2022-11-05T00:46:09.543Z,7.85
2022-11-05T00:47:09.559Z,7.82
2022-11-05T00:48:09.527Z,7.80
2022-11-05T00:49:09.516Z,7.79
2022-11-05T00:50:09.503Z,7.72
2022-11-05T00:51:09.479Z,7.67
2022-11-05T00:52:09.502Z,7.57
2022-11-05T00:53:09.960Z,7.56
2022-11-05T00:54:09.460Z,7.54
2022-11-05T00:55:09.448Z,7.53
2022-11-05T00:56:09.438Z,7.53
2022-11-05T00:57:09.414Z,7.48
2022-11-05T00:58:09.432Z,7.39
2022-11-05T00:59:09.418Z,7.31
2022-11-05T01:00:09.396Z,7.25
2022-11-05T01:01:09.483Z,7.23
2022-11-05T01:02:09.529Z,7.23
2022-11-05T01:03:09.797Z,7.25
2022-11-05T01:04:09.392Z,7.24
2022-11-05T01:05:09.367Z,7.28
2022-11-05T01:06:09.337Z,7.21
2022-11-05T01:07:09.314Z,7.13
2022-11-05T01:08:09.319Z,7.14
2022-11-05T01:09:09.283Z,7.11
2022-11-05T01:10:09.294Z,7.00
2022-11-05T01:11:09.348Z,7.07
2022-11-05T01:12:09.267Z,7.10
2022-11-05T01:13:12.868Z,7.07
2022-11-05T01:14:09.253Z,7.07
2022-11-05T01:15:09.227Z,7.13
2022-11-05T01:16:09.229Z,7.03
2022-11-05T01:17:09.245Z,7.02
2022-11-05T01:18:09.207Z,6.99
2022-11-05T01:19:09.188Z,7.00
2022-11-05T01:20:09.191Z,7.03
2022-11-05T01:21:09.161Z,7.05
2022-11-05T01:22:09.162Z,7.00
2022-11-05T01:23:13.565Z,6.97
2022-11-05T01:24:09.145Z,6.96
2022-11-05T01:25:09.122Z,6.93
2022-11-05T01:26:09.131Z,6.85
2022-11-05T01:27:09.107Z,6.81
2022-11-05T01:28:09.132Z,6.81
2022-11-05T01:29:09.209Z,6.82
2022-11-05T01:30:09.267Z,6.81
2022-11-05T01:31:09.058Z,6.84
2022-11-05T01:32:09.067Z,6.82
2022-11-05T01:33:09.392Z,6.79
2022-11-05T01:34:09.042Z,6.78
2022-11-05T01:35:09.058Z,6.78
2022-11-05T01:36:09.032Z,6.77
2022-11-05T01:37:08.998Z,6.81
2022-11-05T01:38:08.996Z,6.77
2022-11-05T01:39:08.980Z,6.72
2022-11-05T01:40:08.978Z,6.79
2022-11-05T01:41:08.989Z,6.74
2022-11-05T01:42:08.962Z,6.70
2022-11-05T01:43:09.274Z,6.74
2022-11-05T01:44:08.964Z,6.72
2022-11-05T01:45:08.907Z,6.69
2022-11-05T01:46:08.915Z,6.64
2022-11-05T01:47:08.923Z,6.63
2022-11-05T01:48:08.891Z,6.64
2022-11-05T01:49:08.864Z,6.63
2022-11-05T01:50:08.891Z,6.60
2022-11-05T01:51:08.866Z,6.60
2022-11-05T01:52:08.849Z,6.59
2022-11-05T01:53:09.392Z,6.54
2022-11-05T01:54:08.830Z,6.57
2022-11-05T01:55:08.810Z,6.56
2022-11-05T01:56:08.805Z,6.52
2022-11-05T01:57:08.784Z,6.49
2022-11-05T01:58:08.785Z,6.49
2022-11-05T01:59:08.875Z,6.49
2022-11-05T02:00:08.768Z,6.51
2022-11-05T02:01:08.739Z,6.51
2022-11-05T02:02:08.875Z,6.52
2022-11-05T02:03:09.070Z,6.49
2022-11-05T02:04:08.722Z,6.51
2022-11-05T02:05:08.720Z,6.44
2022-11-05T02:06:08.730Z,6.45
2022-11-05T02:07:08.676Z,6.45
2022-11-05T02:08:08.682Z,6.44
2022-11-05T02:09:08.664Z,6.48
2022-11-05T02:10:08.662Z,6.45
2022-11-05T02:11:08.659Z,6.41
2022-11-05T02:12:08.646Z,6.49
2022-11-05T02:13:08.923Z,6.41
2022-11-05T02:14:08.615Z,6.28
2022-11-05T02:15:08.609Z,6.33
2022-11-05T02:16:08.597Z,6.27
2022-11-05T02:17:08.609Z,6.30
2022-11-05T02:18:08.584Z,6.30
2022-11-05T02:19:08.553Z,6.28
2022-11-05T02:20:08.561Z,6.30
2022-11-05T02:21:08.555Z,6.28
2022-11-05T02:22:08.535Z,6.28
2022-11-05T02:23:08.922Z,6.28
2022-11-05T02:24:08.528Z,6.20
2022-11-05T02:25:08.493Z,6.17
2022-11-05T02:26:08.491Z,6.20
2022-11-05T02:27:08.485Z,6.24
2022-11-05T02:28:08.477Z,6.17
2022-11-05T02:29:08.479Z,6.17
2022-11-05T02:30:08.479Z,6.20
2022-11-05T02:31:08.425Z,6.20
2022-11-05T02:32:08.428Z,6.19
2022-11-05T02:33:08.794Z,6.12
2022-11-05T02:34:08.411Z,6.17
2022-11-05T02:35:08.418Z,6.20
2022-11-05T02:36:08.390Z,6.26
2022-11-05T02:37:08.380Z,6.28
2022-11-05T02:38:08.368Z,6.24
2022-11-05T02:39:08.374Z,6.19
2022-11-05T02:40:08.347Z,6.14
2022-11-05T02:41:08.353Z,6.09
2022-11-05T02:42:08.324Z,6.12
2022-11-05T02:43:08.569Z,6.11
2022-11-05T02:44:08.302Z,6.08
2022-11-05T02:45:08.284Z,6.01
2022-11-05T02:46:08.326Z,5.94
2022-11-05T02:47:08.256Z,5.97
2022-11-05T02:48:08.261Z,6.01
2022-11-05T02:49:08.272Z,6.01
2022-11-05T02:50:08.239Z,6.04
2022-11-05T02:51:08.214Z,6.05
2022-11-05T02:52:08.243Z,6.02
2022-11-05T02:53:08.509Z,6.07
2022-11-05T02:54:08.197Z,6.07
2022-11-05T02:55:08.194Z,6.07
2022-11-05T02:56:08.177Z,6.04
2022-11-05T02:57:08.175Z,5.97
2022-11-05T02:58:08.215Z,5.93
2022-11-05T02:59:08.129Z,5.90
2022-11-05T03:00:08.141Z,5.91
2022-11-05T03:01:08.128Z,5.89
2022-11-05T03:02:08.311Z,5.87
2022-11-05T03:03:08.301Z,5.90
2022-11-05T03:04:08.110Z,5.91
2022-11-05T03:05:08.068Z,5.90
2022-11-05T03:06:08.071Z,5.93
2022-11-05T03:07:08.097Z,5.93
2022-11-05T03:08:08.056Z,5.93
2022-11-05T03:09:08.032Z,5.93
2022-11-05T03:10:08.036Z,5.98
2022-11-05T03:11:08.017Z,5.98
2022-11-05T03:12:08.033Z,5.99
2022-11-05T03:13:08.170Z,5.99
2022-11-05T03:14:07.996Z,6.07
2022-11-05T03:15:07.969Z,6.14
2022-11-05T03:16:07.966Z,6.20
2022-11-05T03:17:07.941Z,6.27
2022-11-05T03:18:07.985Z,6.28
2022-11-05T03:19:07.924Z,6.31
2022-11-05T03:20:07.924Z,6.39
2022-11-05T03:21:07.905Z,6.42
2022-11-05T03:22:07.898Z,6.41
2022-11-05T03:23:08.236Z,6.44
2022-11-05T03:24:07.869Z,6.44
2022-11-05T03:25:07.892Z,6.48
2022-11-05T03:26:07.847Z,6.46
2022-11-05T03:27:07.851Z,6.48
2022-11-05T03:28:07.852Z,6.48
2022-11-05T03:29:07.851Z,6.48
2022-11-05T03:30:07.814Z,6.49
2022-11-05T03:31:07.866Z,6.54
2022-11-05T03:32:07.787Z,6.59
2022-11-05T03:33:07.969Z,6.60
2022-11-05T03:34:07.785Z,6.60
2022-11-05T03:35:07.775Z,6.62
2022-11-05T03:36:07.749Z,6.63
2022-11-05T03:37:08.451Z,6.66
2022-11-05T03:38:08.590Z,6.66
2022-11-05T03:39:08.493Z,6.67
2022-11-05T03:40:07.704Z,6.67
2022-11-05T03:41:07.707Z,6.70
2022-11-05T03:42:07.686Z,6.72
2022-11-05T03:43:07.867Z,6.70
2022-11-05T03:44:07.704Z,6.72
2022-11-05T03:45:07.661Z,6.75
2022-11-05T03:46:07.642Z,6.75
2022-11-05T03:47:07.658Z,6.75
2022-11-05T03:48:07.690Z,6.78
2022-11-05T03:49:07.621Z,6.78
2022-11-05T03:50:07.634Z,6.75
2022-11-05T03:51:07.601Z,6.72
2022-11-05T03:52:07.580Z,6.72
2022-11-05T03:53:07.766Z,6.69
2022-11-05T03:54:07.557Z,6.69
2022-11-05T03:55:07.585Z,6.67
2022-11-05T03:56:07.553Z,6.70
2022-11-05T03:57:07.536Z,6.72
2022-11-05T03:58:07.520Z,6.70
2022-11-05T03:59:07.520Z,6.74
2022-11-05T04:00:07.504Z,6.74
2022-11-05T04:01:07.531Z,6.74
2022-11-05T04:02:07.645Z,6.74
2022-11-05T04:03:07.599Z,6.75
2022-11-05T04:04:07.449Z,6.74
2022-11-05T04:05:07.469Z,6.75
2022-11-05T04:06:07.462Z,6.75
2022-11-05T04:07:07.436Z,6.74
2022-11-05T04:08:12.913Z,6.69
2022-11-05T04:09:07.417Z,6.69
2022-11-05T04:10:07.385Z,6.67
2022-11-05T04:11:07.392Z,6.63
2022-11-05T04:12:07.384Z,6.59
2022-11-05T04:13:07.521Z,6.51
2022-11-05T04:14:07.367Z,6.49
2022-11-05T04:15:07.350Z,6.49
2022-11-05T04:16:07.322Z,6.44
2022-11-05T04:17:07.374Z,6.33
2022-11-05T04:18:07.302Z,6.27
2022-11-05T04:19:07.308Z,6.20
2022-11-05T04:20:07.309Z,6.20
2022-11-05T04:21:07.287Z,6.24
2022-11-05T04:22:07.260Z,6.26
2022-11-05T04:23:07.435Z,6.24
2022-11-05T04:24:07.242Z,6.20
2022-11-05T04:25:07.244Z,6.11
2022-11-05T04:26:07.254Z,6.05
2022-11-05T04:27:07.225Z,5.97
2022-11-05T04:28:07.217Z,5.84
2022-11-05T04:29:08.066Z,5.84
2022-11-05T04:30:07.183Z,5.91
2022-11-05T04:31:07.191Z,5.91
2022-11-05T04:32:07.161Z,5.89
2022-11-05T04:33:07.194Z,5.89
2022-11-05T04:34:07.133Z,5.86
2022-11-05T04:35:07.141Z,5.86
2022-11-05T04:36:07.130Z,5.86
2022-11-05T04:37:07.115Z,5.73
2022-11-05T04:38:07.143Z,5.73
2022-11-05T04:39:07.104Z,5.80
2022-11-05T04:40:07.073Z,5.75
2022-11-05T04:41:07.074Z,5.75
2022-11-05T04:42:07.058Z,5.79
2022-11-05T04:43:12.048Z,5.76
2022-11-05T04:44:07.056Z,5.72
2022-11-05T04:45:07.036Z,5.71
2022-11-05T04:46:07.013Z,5.65
2022-11-05T04:47:07.016Z,5.65
2022-11-05T04:48:07.026Z,5.66
2022-11-05T04:49:07.015Z,5.68
2022-11-05T04:50:06.975Z,5.71
2022-11-05T04:51:06.991Z,5.69
2022-11-05T04:52:06.949Z,5.68
2022-11-05T04:53:06.954Z,5.64
2022-11-05T04:54:06.926Z,5.59
2022-11-05T04:55:06.956Z,5.53
2022-11-05T04:56:06.905Z,5.54
2022-11-05T04:57:06.906Z,5.47
2022-11-05T04:58:06.885Z,5.48
2022-11-05T04:59:06.888Z,5.47
2022-11-05T05:00:06.883Z,5.47
2022-11-05T05:01:06.929Z,5.47
2022-11-05T05:02:06.868Z,5.51
2022-11-05T05:03:06.848Z,5.53
2022-11-05T05:04:06.824Z,5.51
2022-11-05T05:05:06.829Z,5.53
2022-11-05T05:06:06.824Z,5.51
2022-11-05T05:07:06.818Z,5.50
2022-11-05T05:08:06.798Z,5.41
2022-11-05T05:09:06.781Z,5.46
2022-11-05T05:10:06.759Z,5.46
2022-11-05T05:11:06.801Z,5.47
2022-11-05T05:12:06.736Z,5.43
2022-11-05T05:13:06.741Z,5.43
2022-11-05T05:14:06.735Z,5.43
2022-11-05T05:15:06.719Z,5.36
2022-11-05T05:16:06.903Z,5.39
2022-11-05T05:17:06.701Z,5.38
2022-11-05T05:18:06.688Z,5.32
2022-11-05T05:19:06.685Z,5.32
2022-11-05T05:20:06.659Z,5.28
2022-11-05T05:21:06.685Z,5.33
2022-11-05T05:22:06.655Z,5.30
2022-11-05T05:23:06.639Z,5.29
2022-11-05T05:24:06.615Z,5.35
2022-11-05T05:25:06.615Z,5.35
2022-11-05T05:26:06.590Z,5.36
2022-11-05T05:27:06.616Z,5.38
2022-11-05T05:28:06.576Z,5.43
2022-11-05T05:29:06.575Z,5.50
2022-11-05T05:30:06.555Z,5.50
2022-11-05T05:31:06.550Z,5.51
2022-11-05T05:32:06.538Z,5.59
2022-11-05T05:33:06.554Z,5.57
2022-11-05T05:34:06.512Z,5.59
2022-11-05T05:35:06.520Z,5.61
2022-11-05T05:36:11.050Z,5.64
2022-11-05T05:37:06.496Z,5.62
2022-11-05T05:38:06.512Z,5.64
2022-11-05T05:39:06.470Z,5.65
2022-11-05T05:40:06.449Z,5.71
2022-11-05T05:41:06.445Z,5.71
2022-11-05T05:42:06.437Z,5.66
2022-11-05T05:43:06.461Z,5.66
2022-11-05T05:44:06.411Z,5.65
2022-11-05T05:45:06.410Z,5.64
2022-11-05T05:46:06.380Z,5.61
2022-11-05T05:47:06.385Z,5.65
2022-11-05T05:48:06.367Z,5.66
2022-11-05T05:49:11.247Z,5.64
2022-11-05T05:50:06.353Z,5.56
2022-11-05T05:51:06.363Z,5.53
2022-11-05T05:52:06.323Z,5.50
2022-11-05T05:53:06.326Z,5.47
2022-11-05T05:54:06.324Z,5.48
2022-11-05T05:55:06.306Z,5.54
2022-11-05T05:56:06.280Z,5.51
2022-11-05T05:57:06.280Z,5.47
2022-11-05T05:58:06.261Z,5.43
2022-11-05T05:59:06.258Z,5.33
2022-11-05T06:00:06.259Z,5.36
2022-11-05T06:01:06.248Z,5.36
2022-11-05T06:02:06.327Z,5.36
2022-11-05T06:03:06.360Z,5.32
2022-11-05T06:04:06.221Z,5.33
2022-11-05T06:05:06.229Z,5.33
2022-11-05T06:06:06.181Z,5.35
2022-11-05T06:07:06.184Z,5.32
2022-11-05T06:08:06.155Z,5.32
2022-11-05T06:09:06.163Z,5.33
2022-11-05T06:10:06.130Z,5.28
2022-11-05T06:11:06.212Z,5.28
2022-11-05T06:12:06.108Z,5.28
2022-11-05T06:13:06.121Z,5.23
2022-11-05T06:14:06.088Z,5.21
2022-11-05T06:15:06.100Z,5.21
2022-11-05T06:16:06.106Z,5.21
2022-11-05T06:17:06.081Z,5.20
2022-11-05T06:18:06.053Z,5.21
2022-11-05T06:19:06.049Z,5.14
2022-11-05T06:20:06.038Z,5.12
2022-11-05T06:21:06.090Z,5.12
2022-11-05T06:22:06.148Z,5.12
2022-11-05T06:23:06.011Z,5.12
2022-11-05T06:24:05.983Z,5.10
2022-11-05T06:25:06.015Z,5.08
2022-11-05T06:26:05.975Z,5.05
2022-11-05T06:27:05.999Z,5.00
2022-11-05T06:28:05.950Z,5.05
2022-11-05T06:29:05.978Z,5.02
2022-11-05T06:30:05.925Z,5.04
2022-11-05T06:31:05.944Z,4.99
2022-11-05T06:32:05.924Z,4.99
2022-11-05T06:33:05.908Z,5.00
2022-11-05T06:34:05.879Z,5.02
2022-11-05T06:35:05.881Z,5.00
2022-11-05T06:36:05.860Z,4.99
2022-11-05T06:37:05.860Z,5.02
2022-11-05T06:38:05.862Z,5.05
2022-11-05T06:39:05.844Z,5.02
2022-11-05T06:40:05.821Z,4.96
2022-11-05T06:41:10.034Z,4.97
2022-11-05T06:42:18.434Z,4.94
2022-11-05T06:43:05.838Z,4.93
2022-11-05T06:44:05.794Z,4.96
2022-11-05T06:45:05.778Z,4.97
2022-11-05T06:46:05.757Z,4.97
2022-11-05T06:47:05.754Z,4.97
2022-11-05T06:48:05.730Z,4.92
2022-11-05T06:49:05.757Z,4.93
2022-11-05T06:50:05.711Z,4.94
2022-11-05T06:51:05.717Z,4.96
2022-11-05T06:52:05.688Z,5.00
2022-11-05T06:53:05.699Z,4.99
2022-11-05T06:54:05.694Z,5.02
2022-11-05T06:55:05.673Z,5.05
2022-11-05T06:56:05.656Z,5.07
2022-11-05T06:57:05.651Z,5.07
2022-11-05T06:58:05.628Z,5.08
2022-11-05T06:59:05.630Z,5.10
2022-11-05T07:00:07.976Z,5.08
2022-11-05T07:01:05.666Z,5.02
2022-11-05T07:02:05.645Z,5.05
2022-11-05T07:03:05.595Z,5.04
2022-11-05T07:04:05.563Z,5.02
2022-11-05T07:05:05.604Z,5.07
2022-11-05T07:06:05.546Z,5.08
2022-11-05T07:07:05.548Z,5.10
2022-11-05T07:08:05.524Z,5.12
2022-11-05T07:09:05.536Z,5.14
2022-11-05T07:10:05.503Z,5.18
2022-11-05T07:11:05.554Z,5.18
2022-11-05T07:12:05.482Z,5.25
2022-11-05T07:13:08.403Z,5.26
2022-11-05T07:14:05.462Z,5.33
2022-11-05T07:15:05.470Z,5.36
2022-11-05T07:16:05.475Z,5.41
2022-11-05T07:17:05.477Z,5.43
2022-11-05T07:18:05.420Z,5.47
2022-11-05T07:19:05.470Z,5.50
2022-11-05T07:20:05.400Z,5.53
2022-11-05T07:21:05.409Z,5.54
2022-11-05T07:22:05.398Z,5.64
2022-11-05T07:23:05.383Z,5.68
2022-11-05T07:24:05.358Z,5.76
2022-11-05T07:25:05.369Z,5.82
2022-11-05T07:26:05.342Z,5.89
2022-11-05T07:27:05.374Z,5.93
2022-11-05T07:28:05.314Z,6.01
2022-11-05T07:29:05.323Z,6.05
2022-11-05T07:30:05.299Z,6.14
2022-11-05T07:31:05.309Z,6.20
2022-11-05T07:32:05.276Z,6.24
2022-11-05T07:33:05.361Z,6.30
2022-11-05T07:34:05.255Z,6.36
2022-11-05T07:35:05.259Z,6.41
2022-11-05T07:36:05.233Z,6.46
2022-11-05T07:37:05.238Z,6.52
2022-11-05T07:38:05.252Z,6.52
2022-11-05T07:39:05.201Z,6.60
2022-11-05T07:40:05.208Z,6.62
2022-11-05T07:41:05.181Z,6.69
2022-11-05T07:42:05.187Z,6.67
2022-11-05T07:43:05.165Z,6.69
2022-11-05T07:44:05.188Z,6.74
2022-11-05T07:45:05.155Z,6.74
2022-11-05T07:46:08.603Z,6.78
2022-11-05T07:47:05.134Z,6.81
2022-11-05T07:48:05.123Z,6.85
2022-11-05T07:49:05.122Z,6.92
2022-11-05T07:50:05.108Z,6.93
2022-11-05T07:51:05.085Z,6.95
2022-11-05T07:52:05.083Z,6.95
2022-11-05T07:53:05.056Z,6.97
2022-11-05T07:54:05.059Z,7.03
2022-11-05T07:55:05.054Z,7.11
2022-11-05T07:56:05.039Z,7.14
2022-11-05T07:57:05.016Z,7.20
2022-11-05T07:58:05.022Z,7.25
2022-11-05T07:59:04.988Z,7.28
2022-11-05T08:00:05.029Z,7.24
2022-11-05T08:01:05.094Z,7.25
2022-11-05T08:02:05.199Z,7.28
2022-11-05T08:03:08.241Z,7.28
2022-11-05T08:04:04.952Z,7.31
2022-11-05T08:05:04.927Z,7.29
2022-11-05T08:06:04.953Z,7.28
2022-11-05T08:07:04.905Z,7.29
2022-11-05T08:08:04.913Z,7.35
2022-11-05T08:09:04.884Z,7.33
2022-11-05T08:10:04.892Z,7.38
2022-11-05T08:11:04.887Z,7.40
2022-11-05T08:12:04.868Z,7.47
2022-11-05T08:13:04.857Z,7.50
2022-11-05T08:14:04.848Z,7.61
2022-11-05T08:15:04.823Z,7.67
2022-11-05T08:16:04.848Z,7.76
2022-11-05T08:17:04.801Z,7.79
2022-11-05T08:18:04.813Z,7.85
2022-11-05T08:19:04.780Z,7.90
2022-11-05T08:20:04.783Z,7.90
2022-11-05T08:21:04.758Z,7.95
2022-11-05T08:22:04.782Z,7.98
2022-11-05T08:23:04.737Z,8.00
2022-11-05T08:24:04.746Z,8.03
2022-11-05T08:25:06.940Z,8.12
2022-11-05T08:26:04.719Z,8.18
2022-11-05T08:27:04.722Z,8.20
2022-11-05T08:28:04.703Z,8.26
2022-11-05T08:29:04.682Z,8.20
2022-11-05T08:30:04.677Z,8.19
2022-11-05T08:31:04.656Z,8.28
2022-11-05T08:32:04.655Z,8.31
2022-11-05T08:33:04.654Z,8.41
2022-11-05T08:34:04.636Z,8.41
2022-11-05T08:35:04.615Z,8.41
2022-11-05T08:36:04.618Z,8.41
2022-11-05T08:37:04.591Z,8.44
2022-11-05T08:38:04.631Z,8.37
2022-11-05T08:39:04.572Z,8.42
2022-11-05T08:40:04.577Z,8.48
2022-11-05T08:41:04.552Z,8.60
2022-11-05T08:42:04.555Z,8.69
2022-11-05T08:43:04.524Z,8.79
2022-11-05T08:44:04.552Z,8.87
2022-11-05T08:45:04.504Z,8.91
2022-11-05T08:46:04.511Z,8.88
2022-11-05T08:47:04.497Z,8.84
2022-11-05T08:48:04.493Z,8.85
2022-11-05T08:49:04.484Z,8.89
2022-11-05T08:50:04.466Z,8.92
2022-11-05T08:51:04.442Z,8.91
2022-11-05T08:52:04.442Z,8.92
2022-11-05T08:53:04.420Z,9.02
2022-11-05T08:54:04.457Z,9.11
2022-11-05T08:55:04.398Z,9.11
2022-11-05T08:56:04.409Z,9.03
2022-11-05T08:57:04.378Z,8.94
2022-11-05T08:58:04.383Z,8.92
2022-11-05T08:59:04.359Z,8.92
2022-11-05T09:00:04.380Z,8.92
2022-11-05T09:01:05.454Z,8.95
2022-11-05T09:02:04.502Z,8.94
2022-11-05T09:03:04.320Z,9.00
2022-11-05T09:04:04.322Z,8.97
2022-11-05T09:05:04.318Z,9.02
2022-11-05T09:06:04.303Z,9.04
2022-11-05T09:07:04.281Z,9.04
2022-11-05T09:08:04.274Z,9.10
2022-11-05T09:09:04.257Z,9.14
2022-11-05T09:10:04.255Z,9.19
2022-11-05T09:11:04.257Z,9.21
2022-11-05T09:12:12.905Z,9.23
2022-11-05T09:13:04.220Z,9.26
2022-11-05T09:14:04.215Z,9.21
2022-11-05T09:15:04.185Z,9.22
2022-11-05T09:16:04.429Z,9.26
2022-11-05T09:17:04.167Z,9.29
2022-11-05T09:18:04.168Z,9.28
2022-11-05T09:19:04.145Z,9.34
2022-11-05T09:20:04.148Z,9.36
2022-11-05T09:21:04.159Z,9.40
2022-11-05T09:22:04.137Z,9.46
2022-11-05T09:23:04.101Z,9.50
2022-11-05T09:24:04.108Z,9.59
2022-11-05T09:25:04.080Z,9.61
2022-11-05T09:26:04.102Z,9.66
2022-11-05T09:27:04.082Z,9.68
2022-11-05T09:28:04.062Z,9.72
2022-11-05T09:29:04.040Z,9.68
2022-11-05T09:30:04.043Z,9.62
2022-11-05T09:31:04.023Z,9.64
2022-11-05T09:32:04.059Z,9.61
2022-11-05T09:33:03.998Z,9.62
2022-11-05T09:34:04.000Z,9.68
2022-11-05T09:35:03.973Z,9.87
2022-11-05T09:36:03.980Z,10.07
2022-11-05T09:37:03.952Z,9.98
2022-11-05T09:38:03.978Z,9.97
2022-11-05T09:39:03.931Z,9.94
2022-11-05T09:40:03.941Z,9.91
2022-11-05T09:41:03.913Z,9.86
2022-11-05T09:42:03.917Z,9.82
2022-11-05T09:43:03.924Z,9.79
2022-11-05T09:44:03.900Z,9.79
2022-11-05T09:45:03.871Z,9.82
2022-11-05T09:46:03.871Z,9.92
2022-11-05T09:47:03.861Z,9.94
2022-11-05T09:48:03.854Z,10.02
2022-11-05T09:49:03.848Z,10.10
2022-11-05T09:50:03.841Z,10.07
2022-11-05T09:51:03.803Z,10.02
2022-11-05T09:52:03.811Z,9.99
2022-11-05T09:53:03.782Z,9.92
2022-11-05T09:54:03.807Z,9.92
2022-11-05T09:55:03.788Z,9.91
2022-11-05T09:56:03.768Z,9.87
2022-11-05T09:57:03.739Z,9.91
2022-11-05T09:58:03.752Z,9.92
2022-11-05T09:59:03.752Z,9.97
2022-11-05T10:00:03.721Z,10.01
2022-11-05T10:01:03.776Z,10.04
2022-11-05T10:02:03.870Z,10.04
2022-11-05T10:03:03.674Z,10.07
2022-11-05T10:04:03.687Z,10.12
2022-11-05T10:05:09.433Z,10.13
2022-11-05T10:06:03.661Z,10.15
2022-11-05T10:07:03.631Z,10.17
2022-11-05T10:08:03.640Z,10.17
2022-11-05T10:09:03.615Z,10.17
2022-11-05T10:10:03.614Z,10.22
2022-11-05T10:11:03.620Z,10.26
2022-11-05T10:12:03.596Z,10.31
2022-11-05T10:13:03.575Z,10.35
2022-11-05T10:14:03.572Z,10.41
2022-11-05T10:15:03.551Z,10.46
2022-11-05T10:16:03.566Z,10.48
2022-11-05T10:17:03.579Z,10.51
2022-11-05T10:18:03.528Z,10.53
2022-11-05T10:19:03.518Z,10.46
2022-11-05T10:20:03.506Z,10.46
2022-11-05T10:21:03.538Z,10.48
2022-11-05T10:22:07.354Z,10.49
2022-11-05T10:23:03.468Z,10.56
2022-11-05T10:24:03.469Z,10.61
2022-11-05T10:25:03.442Z,10.64
2022-11-05T10:26:03.449Z,10.69
2022-11-05T10:27:03.615Z,10.68
2022-11-05T10:28:03.425Z,10.75
2022-11-05T10:29:03.403Z,10.82
2022-11-05T10:30:03.402Z,11.04
2022-11-05T10:31:03.377Z,10.86
2022-11-05T10:32:03.384Z,11.25
2022-11-05T10:33:03.535Z,11.70
2022-11-05T10:34:03.360Z,12.00
2022-11-05T10:35:03.333Z,12.00
2022-11-05T10:36:03.337Z,12.22
2022-11-05T10:37:03.314Z,12.29
2022-11-05T10:38:03.320Z,12.46
2022-11-05T10:39:03.330Z,12.79
2022-11-05T10:40:03.299Z,13.18
2022-11-05T10:41:03.275Z,13.59
2022-11-05T10:42:03.279Z,14.14
2022-11-05T10:43:03.250Z,13.97
2022-11-05T10:44:03.251Z,13.74
2022-11-05T10:45:03.280Z,13.74
2022-11-05T10:46:03.232Z,13.65
2022-11-05T10:47:03.227Z,13.90
2022-11-05T10:48:03.214Z,13.97
2022-11-05T10:49:03.185Z,13.95
2022-11-05T10:50:03.192Z,14.54
2022-11-05T10:51:03.197Z,15.06
2022-11-05T10:52:03.164Z,14.92
2022-11-05T10:53:03.146Z,14.92
2022-11-05T10:54:03.142Z,14.58
2022-11-05T10:55:03.134Z,14.43
2022-11-05T10:56:03.127Z,14.77
2022-11-05T10:57:03.132Z,14.37
2022-11-05T10:58:03.107Z,14.11
2022-11-05T10:59:06.731Z,14.15
2022-11-05T11:00:03.824Z,13.60
2022-11-05T11:01:03.153Z,13.89
2022-11-05T11:02:03.272Z,14.18
2022-11-05T11:03:03.070Z,13.83
2022-11-05T11:04:03.045Z,12.97
2022-11-05T11:05:03.278Z,13.38
2022-11-05T11:06:03.018Z,13.46
2022-11-05T11:07:02.991Z,13.72
2022-11-05T11:08:02.993Z,13.93
2022-11-05T11:09:03.004Z,14.55
2022-11-05T11:10:02.979Z,14.69
2022-11-05T11:11:02.946Z,14.54
2022-11-05T11:12:02.957Z,14.69
2022-11-05T11:13:02.937Z,15.00
2022-11-05T11:14:02.957Z,15.49
2022-11-05T11:15:02.921Z,15.57
2022-11-05T11:16:02.917Z,15.72
2022-11-05T11:17:02.884Z,15.18
2022-11-05T11:18:02.891Z,15.06
2022-11-05T11:19:02.864Z,14.65
2022-11-05T11:20:02.898Z,14.59
2022-11-05T11:21:02.843Z,14.60
2022-11-05T11:22:02.843Z,14.65
2022-11-05T11:23:02.817Z,14.25
2022-11-05T11:24:02.826Z,14.23
2022-11-05T11:25:02.800Z,13.97
2022-11-05T11:26:02.826Z,13.85
2022-11-05T11:27:02.781Z,13.75
2022-11-05T11:28:02.780Z,13.52
2022-11-05T11:29:02.765Z,13.72
2022-11-05T11:30:02.783Z,14.29
2022-11-05T11:31:02.764Z,13.92
2022-11-05T11:32:02.776Z,13.72
2022-11-05T11:33:02.712Z,13.41
2022-11-05T11:34:02.718Z,13.31
2022-11-05T11:35:02.736Z,13.27
2022-11-05T11:36:02.728Z,13.22
2022-11-05T11:37:02.728Z,13.35
2022-11-05T11:38:02.755Z,13.37
2022-11-05T11:39:02.651Z,13.50
2022-11-05T11:40:02.660Z,13.31
2022-11-05T11:41:02.634Z,13.22
2022-11-05T11:42:02.629Z,13.19
2022-11-05T11:43:02.620Z,13.46
2022-11-05T11:44:02.645Z,13.53
2022-11-05T11:45:02.585Z,12.98
2022-11-05T11:46:06.930Z,12.54
2022-11-05T11:47:02.561Z,12.27
2022-11-05T11:48:02.579Z,12.06
2022-11-05T11:49:02.568Z,11.91
2022-11-05T11:50:02.561Z,11.83
2022-11-05T11:51:02.521Z,11.70
2022-11-05T11:52:02.509Z,11.69
2022-11-05T11:53:02.506Z,11.69
2022-11-05T11:54:02.483Z,11.65
2022-11-05T11:55:02.512Z,11.63
2022-11-05T11:56:02.463Z,11.54
2022-11-05T11:57:02.478Z,11.45
2022-11-05T11:58:02.438Z,11.51
2022-11-05T11:59:02.463Z,11.52
2022-11-05T12:00:08.947Z,11.59
2022-11-05T12:01:02.501Z,11.60
2022-11-05T12:02:02.616Z,11.60
2022-11-05T12:03:02.552Z,11.70
2022-11-05T12:04:02.378Z,11.90
2022-11-05T12:05:02.378Z,12.00
2022-11-05T12:06:02.365Z,12.06
2022-11-05T12:07:02.384Z,12.39
2022-11-05T12:08:02.357Z,12.36
2022-11-05T12:09:06.699Z,12.29
2022-11-05T12:10:02.313Z,12.47
2022-11-05T12:11:02.316Z,12.36
2022-11-05T12:12:02.287Z,12.46
2022-11-05T12:13:02.331Z,12.57
2022-11-05T12:14:02.271Z,12.83
2022-11-05T12:15:02.310Z,13.28
2022-11-05T12:16:02.251Z,13.77
2022-11-05T12:17:02.253Z,14.14
2022-11-05T12:18:02.235Z,14.20
2022-11-05T12:19:02.274Z,13.47
2022-11-05T12:20:02.251Z,13.20
2022-11-05T12:21:02.206Z,12.94
2022-11-05T12:22:02.187Z,12.72
2022-11-05T12:23:02.183Z,12.61
2022-11-05T12:24:02.163Z,12.61
2022-11-05T12:25:02.191Z,12.58
2022-11-05T12:26:02.137Z,12.50
2022-11-05T12:27:02.139Z,12.50
2022-11-05T12:28:02.114Z,12.72
2022-11-05T12:29:18.409Z,12.72
2022-11-05T12:30:02.102Z,12.80
2022-11-05T12:31:02.131Z,12.91
2022-11-05T12:32:02.072Z,13.08
2022-11-05T12:33:02.122Z,13.09
2022-11-05T12:34:02.052Z,13.11
2022-11-05T12:35:02.058Z,13.30
2022-11-05T12:36:02.031Z,13.42
2022-11-05T12:37:02.060Z,13.54
2022-11-05T12:38:02.012Z,13.33
2022-11-05T12:39:02.011Z,13.23
2022-11-05T12:40:01.993Z,12.98
2022-11-05T12:41:01.990Z,12.68
2022-11-05T12:42:01.994Z,12.64
2022-11-05T12:43:02.889Z,12.75
2022-11-05T12:44:01.952Z,12.72
2022-11-05T12:45:01.970Z,12.60
2022-11-05T12:46:01.933Z,12.80
2022-11-05T12:47:01.929Z,12.70
2022-11-05T12:48:01.957Z,12.75
2022-11-05T12:49:01.907Z,12.79
2022-11-05T12:50:01.880Z,12.85
2022-11-05T12:51:01.885Z,12.98
2022-11-05T12:52:01.857Z,13.01
2022-11-05T12:53:01.865Z,12.79
2022-11-05T12:54:01.869Z,12.67
2022-11-05T12:55:01.846Z,12.70
2022-11-05T12:56:01.820Z,12.79
2022-11-05T12:57:01.839Z,12.70
2022-11-05T12:58:01.801Z,12.67
2022-11-05T12:59:01.796Z,12.75
2022-11-05T13:00:01.817Z,12.82
2022-11-05T13:01:01.822Z,12.82
2022-11-05T13:02:01.899Z,12.87
2022-11-05T13:03:01.776Z,12.91
2022-11-05T13:04:01.735Z,12.91
2022-11-05T13:05:01.727Z,12.90
2022-11-05T13:06:05.877Z,12.94
2022-11-05T13:07:01.722Z,12.90
2022-11-05T13:08:01.686Z,12.87
2022-11-05T13:09:01.701Z,12.95
2022-11-05T13:10:01.671Z,13.01
2022-11-05T13:11:01.667Z,13.09